Time;durP1;ratioP1;P1;durP2;ratioP2;P2;SDS_P1;SDS_P2;PMS_P1;PMS_P2;Temp;Humidity;BMP_temperature;BMP_pressure;BME280_temperature;BME280_humidity;BME280_pressure;Samples;Min_cycle;Max_cycle;Signal;HPM_P1;HPM_P2
2021/08/19 00:02:12;;;;;;;11.05;8.00;;;17.90;90.80;;;;;;5111369;28;20024;-79
2021/08/19 00:04:38;;;;;;;13.45;9.35;;;17.90;90.80;;;;;;5115576;28;20378;-79
2021/08/19 00:07:03;;;;;;;10.40;8.38;;;17.90;90.90;;;;;;5117556;28;20052;-84
2021/08/19 00:09:29;;;;;;;11.10;8.50;;;17.90;90.90;;;;;;5096260;28;20039;-79
2021/08/19 00:11:56;;;;;;;10.38;7.93;;;17.90;90.80;;;;;;5111808;28;20048;-79
2021/08/19 00:14:21;;;;;;;11.57;8.35;;;17.90;90.80;;;;;;5094137;28;20154;-79
2021/08/19 00:16:47;;;;;;;14.70;8.73;;;17.90;90.80;;;;;;5094332;28;20434;-79
2021/08/19 00:19:13;;;;;;;13.15;8.05;;;17.90;90.80;;;;;;5084402;28;20032;-78
2021/08/19 00:21:38;;;;;;;11.00;7.60;;;18.00;90.80;;;;;;5084052;28;20027;-78
2021/08/19 00:24:04;;;;;;;12.68;8.38;;;18.00;90.80;;;;;;5096201;28;20039;-83
2021/08/19 00:26:30;;;;;;;13.30;8.65;;;18.00;90.70;;;;;;5111958;28;20024;-78
2021/08/19 00:28:55;;;;;;;11.07;7.72;;;17.90;90.70;;;;;;5115580;28;20038;-79
2021/08/19 00:31:22;;;;;;;12.73;7.78;;;18.00;90.70;;;;;;5096603;28;20118;-80
2021/08/19 00:33:50;;;;;;;11.85;7.85;;;18.00;90.70;;;;;;5097165;28;20072;-80
2021/08/19 00:36:16;;;;;;;10.55;7.15;;;18.00;90.70;;;;;;5113550;28;20031;-78
2021/08/19 00:38:43;;;;;;;9.60;6.70;;;18.00;90.60;;;;;;5098523;28;20032;-79
2021/08/19 00:41:09;;;;;;;13.18;8.00;;;18.00;90.60;;;;;;5104670;28;20398;-80
2021/08/19 00:43:35;;;;;;;12.30;7.47;;;18.00;90.60;;;;;;5114353;28;20039;-78
2021/08/19 00:46:22;;;;;;;9.20;7.10;;;18.00;90.60;;;;;;5114788;28;20043;-78
2021/08/19 00:48:48;;;;;;;13.85;8.23;;;18.00;90.60;;;;;;5080107;28;20388;-80
2021/08/19 00:51:14;;;;;;;14.52;7.70;;;17.90;90.60;;;;;;5093124;28;20027;-80
2021/08/19 00:53:41;;;;;;;10.98;7.47;;;17.90;90.60;;;;;;5110786;28;20031;-79
2021/08/19 00:56:06;;;;;;;11.52;7.53;;;18.00;90.60;;;;;;5085214;28;20030;-83
2021/08/19 00:58:35;;;;;;;14.82;7.50;;;18.00;90.60;;;;;;5112605;28;20039;-80
2021/08/19 01:01:00;;;;;;;12.15;8.48;;;18.00;90.60;;;;;;5114274;28;20115;-78
2021/08/19 01:03:26;;;;;;;12.15;7.85;;;18.00;90.60;;;;;;5094553;28;20107;-79
2021/08/19 01:05:52;;;;;;;13.60;8.25;;;18.00;90.60;;;;;;5115381;28;20052;-82
2021/08/19 01:08:18;;;;;;;9.27;7.47;;;18.00;90.60;;;;;;5112205;28;20027;-78
2021/08/19 01:10:43;;;;;;;12.82;8.95;;;18.00;90.60;;;;;;5113912;28;20459;-81
2021/08/19 01:13:11;;;;;;;10.93;7.82;;;18.00;90.70;;;;;;5113053;28;20038;-85
2021/08/19 01:15:37;;;;;;;11.60;8.23;;;18.00;90.70;;;;;;5116323;27;20028;-78
2021/08/19 01:18:02;;;;;;;12.25;7.85;;;17.90;90.70;;;;;;5112967;28;20399;-78
2021/08/19 01:20:33;;;;;;;14.38;7.75;;;17.90;90.80;;;;;;5095358;28;20035;-79
2021/08/19 01:23:00;;;;;;;10.77;7.20;;;17.90;90.90;;;;;;5092466;28;20044;-79
2021/08/19 01:25:26;;;;;;;11.52;7.30;;;17.90;90.90;;;;;;5110883;28;20083;-80
2021/08/19 01:27:54;;;;;;;12.35;6.80;;;17.80;91.00;;;;;;5112212;28;20398;-79
2021/08/19 01:30:21;;;;;;;11.10;7.68;;;17.90;91.00;;;;;;5114052;28;20058;-80
2021/08/19 01:32:46;;;;;;;11.75;7.95;;;17.80;91.00;;;;;;5116414;28;20035;-78
2021/08/19 01:35:18;;;;;;;11.07;7.53;;;17.80;91.00;;;;;;5110951;28;20039;-83
2021/08/19 01:37:43;;;;;;;12.07;8.35;;;17.80;91.00;;;;;;5116793;28;20401;-78
2021/08/19 01:40:10;;;;;;;10.88;7.95;;;17.80;91.10;;;;;;5098350;28;20130;-79
2021/08/19 01:42:35;;;;;;;9.38;7.25;;;17.80;91.10;;;;;;5108864;28;20067;-78
2021/08/19 01:45:01;;;;;;;11.25;7.78;;;17.80;91.10;;;;;;5093886;28;20055;-79
2021/08/19 01:47:27;;;;;;;14.95;8.20;;;17.80;91.20;;;;;;5096268;28;20123;-80
2021/08/19 01:49:52;;;;;;;10.65;8.02;;;17.80;91.20;;;;;;5109830;28;20085;-79
2021/08/19 01:52:18;;;;;;;14.25;7.85;;;17.80;91.30;;;;;;5093870;28;20072;-80
2021/08/19 01:54:44;;;;;;;10.27;7.43;;;17.70;91.30;;;;;;5086972;28;20054;-79
2021/08/19 01:57:10;;;;;;;12.35;8.38;;;17.70;91.40;;;;;;5092353;28;20036;-79
2021/08/19 01:59:36;;;;;;;10.23;7.38;;;17.70;91.50;;;;;;5101152;28;20641;-80
2021/08/19 02:02:01;;;;;;;11.57;7.53;;;17.70;91.50;;;;;;5112715;28;20032;-80
2021/08/19 02:04:28;;;;;;;11.52;7.22;;;17.70;91.60;;;;;;5092031;28;20051;-79
2021/08/19 02:06:54;;;;;;;10.45;7.63;;;17.70;91.60;;;;;;5109369;28;20114;-79
2021/08/19 02:09:19;;;;;;;12.25;7.97;;;17.70;91.60;;;;;;5111761;28;20036;-84
2021/08/19 02:11:45;;;;;;;9.70;6.80;;;17.70;91.60;;;;;;5111353;28;20059;-79
2021/08/19 02:14:11;;;;;;;10.50;7.63;;;17.70;91.60;;;;;;5113198;28;20459;-79
2021/08/19 02:16:37;;;;;;;13.25;8.15;;;17.70;91.60;;;;;;5102621;28;20500;-79
2021/08/19 02:19:03;;;;;;;10.98;7.47;;;17.70;91.60;;;;;;5095680;28;20039;-79
2021/08/19 02:21:29;;;;;;;13.15;8.07;;;17.70;91.60;;;;;;5096515;28;20020;-79
2021/08/19 02:23:54;;;;;;;11.60;7.75;;;17.70;91.70;;;;;;5124512;28;20046;-81
2021/08/19 02:26:20;;;;;;;13.25;8.13;;;17.70;91.70;;;;;;5128119;28;20040;-86
2021/08/19 02:28:46;;;;;;;11.38;8.20;;;17.70;91.70;;;;;;5130633;28;20049;-82
2021/08/19 02:31:11;;;;;;;11.20;7.80;;;17.70;91.70;;;;;;5097022;28;20471;-80
2021/08/19 02:33:37;;;;;;;12.68;7.80;;;17.70;91.60;;;;;;5096478;28;20027;-80
2021/08/19 02:36:03;;;;;;;13.55;8.23;;;17.70;91.60;;;;;;5130370;28;20039;-79
2021/08/19 02:38:29;;;;;;;13.30;7.63;;;17.70;91.60;;;;;;5112303;28;20713;-78
2021/08/19 02:40:54;;;;;;;11.82;7.80;;;17.70;91.60;;;;;;5093310;28;20067;-79
2021/08/19 02:43:20;;;;;;;11.98;7.20;;;17.70;91.60;;;;;;5102330;28;20486;-84
2021/08/19 02:45:46;;;;;;;11.65;7.63;;;17.70;91.60;;;;;;5094535;28;20040;-80
2021/08/19 02:48:12;;;;;;;11.60;8.95;;;17.70;91.60;;;;;;5112678;28;20028;-79
2021/08/19 02:50:37;;;;;;;10.43;7.53;;;17.70;91.60;;;;;;5112404;28;20051;-80
2021/08/19 02:53:04;;;;;;;11.00;8.05;;;17.70;91.60;;;;;;5112148;28;20376;-79
2021/08/19 02:55:30;;;;;;;11.52;7.72;;;17.70;91.60;;;;;;5112631;28;20055;-79
2021/08/19 02:57:55;;;;;;;13.32;8.32;;;17.70;91.60;;;;;;5112091;28;20063;-80
2021/08/19 03:00:21;;;;;;;9.10;7.28;;;17.70;91.60;;;;;;5104598;28;20028;-79
2021/08/19 03:02:47;;;;;;;12.65;9.20;;;17.70;91.50;;;;;;5103935;28;20023;-80
2021/08/19 03:05:12;;;;;;;13.88;9.13;;;17.70;91.50;;;;;;5097139;28;20079;-78
2021/08/19 03:07:38;;;;;;;12.20;9.13;;;17.70;91.50;;;;;;5101585;28;20161;-79
2021/08/19 03:10:05;;;;;;;14.15;9.00;;;17.70;91.50;;;;;;5106489;28;20028;-80
2021/08/19 03:12:31;;;;;;;11.07;8.15;;;17.70;91.50;;;;;;5093113;28;20463;-80
2021/08/19 03:14:57;;;;;;;11.23;8.40;;;17.70;91.40;;;;;;5102628;28;20024;-80
2021/08/19 03:17:22;;;;;;;11.45;8.45;;;17.70;91.40;;;;;;5058737;28;20028;-80
2021/08/19 03:19:48;;;;;;;13.30;8.73;;;17.70;91.30;;;;;;5075208;28;20363;-80
2021/08/19 03:22:15;;;;;;;14.48;9.07;;;17.70;91.30;;;;;;5089485;28;20459;-78
2021/08/19 03:24:41;;;;;;;13.63;9.07;;;17.60;91.20;;;;;;5112462;28;20119;-79
2021/08/19 03:27:07;;;;;;;12.07;8.18;;;17.70;91.20;;;;;;5113227;28;20024;-79
2021/08/19 03:29:34;;;;;;;15.35;8.43;;;17.60;91.20;;;;;;5112182;28;20026;-79
2021/08/19 03:32:00;;;;;;;13.77;8.00;;;17.60;91.10;;;;;;5091463;28;20036;-79
2021/08/19 03:34:26;;;;;;;14.75;8.68;;;17.60;91.10;;;;;;5100318;28;20065;-78
2021/08/19 03:36:52;;;;;;;14.98;8.60;;;17.60;91.10;;;;;;5111447;28;20035;-80
2021/08/19 03:39:18;;;;;;;12.63;9.60;;;17.60;91.00;;;;;;5079284;28;20032;-79
2021/08/19 03:41:44;;;;;;;14.68;9.02;;;17.60;91.00;;;;;;5093681;28;20460;-79
2021/08/19 03:44:12;;;;;;;13.25;9.40;;;17.60;90.90;;;;;;5093010;28;20055;-78
2021/08/19 03:46:38;;;;;;;13.13;8.98;;;17.60;90.90;;;;;;5086240;28;20122;-78
2021/08/19 03:49:04;;;;;;;16.00;9.32;;;17.60;90.90;;;;;;5100396;28;20165;-79
2021/08/19 03:51:29;;;;;;;17.60;9.68;;;17.60;90.90;;;;;;5107983;28;20032;-80
2021/08/19 03:53:56;;;;;;;18.88;10.68;;;17.60;90.80;;;;;;5110081;28;20032;-81
2021/08/19 03:56:22;;;;;;;16.92;10.70;;;17.50;90.80;;;;;;5101725;28;20023;-78
2021/08/19 03:58:48;;;;;;;18.33;10.73;;;17.60;90.80;;;;;;5109119;28;20023;-78
2021/08/19 04:01:14;;;;;;;14.18;10.00;;;17.60;90.80;;;;;;5096823;28;20081;-78
2021/08/19 04:03:39;;;;;;;12.98;10.23;;;17.50;90.80;;;;;;5112349;28;20036;-81
2021/08/19 04:06:05;;;;;;;14.30;9.88;;;17.50;90.80;;;;;;5081502;28;20075;-80
2021/08/19 04:08:30;;;;;;;12.38;9.38;;;17.50;90.80;;;;;;5097832;28;20356;-80
2021/08/19 04:10:57;;;;;;;14.13;8.85;;;17.50;90.80;;;;;;5093707;28;20059;-79
2021/08/19 04:13:24;;;;;;;13.30;9.35;;;17.50;90.80;;;;;;5094640;28;20443;-78
2021/08/19 04:15:49;;;;;;;15.90;9.45;;;17.50;90.80;;;;;;5100536;28;20028;-79
2021/08/19 04:18:16;;;;;;;14.82;9.45;;;17.50;90.80;;;;;;5094457;28;20471;-78
2021/08/19 04:20:42;;;;;;;14.35;9.00;;;17.40;90.80;;;;;;5092752;28;20053;-86
2021/08/19 04:23:07;;;;;;;12.48;8.55;;;17.40;90.80;;;;;;5086708;28;20039;-79
2021/08/19 04:25:33;;;;;;;14.02;10.27;;;17.50;90.80;;;;;;5110376;28;20088;-84
2021/08/19 04:27:58;;;;;;;12.52;8.88;;;17.40;90.90;;;;;;5079488;28;20028;-80
2021/08/19 04:30:24;;;;;;;14.82;9.43;;;17.50;90.80;;;;;;5079546;28;20035;-81
2021/08/19 04:32:50;;;;;;;14.23;9.45;;;17.50;90.70;;;;;;5112782;28;20020;-79
2021/08/19 04:35:17;;;;;;;19.58;8.80;;;17.40;90.70;;;;;;5115017;28;20031;-79
2021/08/19 04:37:42;;;;;;;13.52;9.13;;;17.40;90.70;;;;;;5113562;28;20032;-79
2021/08/19 04:40:08;;;;;;;15.52;9.30;;;17.40;90.70;;;;;;5113714;28;20033;-78
2021/08/19 04:42:34;;;;;;;14.90;8.82;;;17.40;90.70;;;;;;5090611;28;20046;-78
2021/08/19 04:45:00;;;;;;;14.60;9.10;;;17.40;90.70;;;;;;5115069;28;20028;-79
2021/08/19 04:47:25;;;;;;;16.98;10.63;;;17.40;90.70;;;;;;5119064;28;20375;-78
2021/08/19 04:49:51;;;;;;;13.68;9.57;;;17.30;90.70;;;;;;5115963;28;20089;-79
2021/08/19 04:52:17;;;;;;;14.27;9.70;;;17.30;90.70;;;;;;5097502;28;20034;-79
2021/08/19 04:54:42;;;;;;;20.50;10.20;;;17.40;90.80;;;;;;5097561;28;20077;-78
2021/08/19 04:57:08;;;;;;;17.02;9.75;;;17.40;90.70;;;;;;5097494;28;20039;-79
2021/08/19 04:59:33;;;;;;;16.35;10.63;;;17.40;90.70;;;;;;5081238;28;20028;-78
2021/08/19 05:02:01;;;;;;;14.05;9.70;;;17.40;90.70;;;;;;5084605;28;20024;-79
2021/08/19 05:04:27;;;;;;;15.38;9.55;;;17.40;90.70;;;;;;5061056;28;20028;-79
2021/08/19 05:06:52;;;;;;;17.08;10.10;;;17.40;90.70;;;;;;5093799;28;20063;-79
2021/08/19 05:09:18;;;;;;;15.15;9.82;;;17.40;90.70;;;;;;5098913;28;20384;-78
2021/08/19 05:11:44;;;;;;;15.05;9.52;;;17.40;90.70;;;;;;5080317;28;20400;-79
2021/08/19 05:14:10;;;;;;;18.38;10.30;;;17.40;90.70;;;;;;5076907;28;20502;-79
2021/08/19 05:16:35;;;;;;;14.15;9.52;;;17.40;90.70;;;;;;5084677;28;20034;-79
2021/08/19 05:19:02;;;;;;;16.52;9.82;;;17.40;90.70;;;;;;5114040;28;20042;-79
2021/08/19 05:21:29;;;;;;;15.95;10.45;;;17.40;90.70;;;;;;5115976;28;20036;-79
2021/08/19 05:23:54;;;;;;;16.92;10.30;;;17.50;90.70;;;;;;5113939;28;20080;-79
2021/08/19 05:26:20;;;;;;;13.35;9.40;;;17.50;90.60;;;;;;5096679;28;20728;-79
2021/08/19 05:28:46;;;;;;;15.57;10.70;;;17.50;90.60;;;;;;5115404;27;20089;-78
2021/08/19 05:31:12;;;;;;;16.05;9.90;;;17.50;90.60;;;;;;5112651;28;20051;-79
2021/08/19 05:33:39;;;;;;;18.88;10.93;;;17.60;90.60;;;;;;5114232;28;20490;-80
2021/08/19 05:36:08;;;;;;;15.95;11.02;;;17.60;90.60;;;;;;5112662;28;20035;-78
2021/08/19 05:38:37;;;;;;;15.05;10.20;;;17.60;90.50;;;;;;5080979;28;20055;-79
2021/08/19 05:41:04;;;;;;;15.20;9.82;;;17.70;90.60;;;;;;5115698;28;20348;-80
2021/08/19 05:43:30;;;;;;;14.95;9.50;;;17.70;90.50;;;;;;5094471;28;20516;-80
2021/08/19 05:45:56;;;;;;;15.60;10.02;;;17.70;90.50;;;;;;5122243;27;20062;-80
2021/08/19 05:48:21;;;;;;;17.20;10.88;;;17.70;90.50;;;;;;5093169;28;20134;-79
2021/08/19 05:50:47;;;;;;;18.35;11.02;;;17.80;90.40;;;;;;5092992;28;20059;-79
2021/08/19 05:53:13;;;;;;;17.13;12.10;;;17.80;90.30;;;;;;5104353;28;20024;-83
2021/08/19 05:55:38;;;;;;;16.63;11.55;;;17.80;90.30;;;;;;5094520;28;20056;-80
2021/08/19 05:58:04;;;;;;;17.38;10.88;;;17.80;90.20;;;;;;5103355;28;20115;-80
2021/08/19 06:00:30;;;;;;;15.30;10.85;;;17.90;90.20;;;;;;5095843;28;20114;-79
2021/08/19 06:02:55;;;;;;;17.20;11.80;;;17.90;90.20;;;;;;5112922;28;20054;-80
2021/08/19 06:05:21;;;;;;;15.98;10.82;;;18.00;90.20;;;;;;5113054;28;20060;-78
2021/08/19 06:07:47;;;;;;;13.27;10.00;;;18.00;90.10;;;;;;5112368;28;20527;-83
2021/08/19 06:10:13;;;;;;;14.40;10.68;;;18.10;90.00;;;;;;5113259;28;20032;-79
2021/08/19 06:12:39;;;;;;;17.63;10.95;;;18.20;90.00;;;;;;5112942;28;20024;-79
2021/08/19 06:15:06;;;;;;;15.20;10.95;;;18.20;89.90;;;;;;5112798;28;20027;-79
2021/08/19 06:17:34;;;;;;;16.42;11.20;;;18.20;89.80;;;;;;5095552;28;20035;-79
2021/08/19 06:20:01;;;;;;;17.83;11.50;;;18.20;89.60;;;;;;5111776;28;20023;-79
2021/08/19 06:22:27;;;;;;;15.15;10.45;;;18.30;89.60;;;;;;5107926;28;20043;-78
2021/08/19 06:24:52;;;;;;;19.40;11.88;;;18.30;89.40;;;;;;5103483;28;20024;-78
2021/08/19 06:27:18;;;;;;;15.85;10.63;;;18.30;89.30;;;;;;5091927;28;20031;-78
2021/08/19 06:29:44;;;;;;;17.30;11.48;;;18.30;89.30;;;;;;5111612;28;20032;-79
2021/08/19 06:32:09;;;;;;;16.13;10.63;;;18.30;89.20;;;;;;5091014;28;20032;-78
2021/08/19 06:34:35;;;;;;;19.52;11.90;;;18.30;89.20;;;;;;5086875;28;20402;-79
2021/08/19 06:37:02;;;;;;;13.80;10.40;;;18.30;89.10;;;;;;5110973;28;20035;-79
2021/08/19 06:39:28;;;;;;;20.15;12.07;;;18.40;89.10;;;;;;5111877;28;20027;-79
2021/08/19 06:41:54;;;;;;;18.55;11.88;;;18.40;88.90;;;;;;5111162;28;20062;-80
2021/08/19 06:44:19;;;;;;;20.77;12.88;;;18.40;88.80;;;;;;5095300;28;20027;-81
2021/08/19 06:46:45;;;;;;;18.00;12.32;;;18.40;88.70;;;;;;5121653;28;20046;-78
2021/08/19 06:49:11;;;;;;;16.95;12.20;;;18.40;88.70;;;;;;5104451;28;20031;-79
2021/08/19 06:51:36;;;;;;;20.10;12.88;;;18.40;88.70;;;;;;5125443;28;20026;-78
2021/08/19 06:54:03;;;;;;;20.33;13.85;;;18.50;88.60;;;;;;5103673;28;20099;-82
2021/08/19 06:56:29;;;;;;;18.00;13.48;;;18.50;88.50;;;;;;5103913;28;20028;-77
2021/08/19 06:58:55;;;;;;;19.90;12.77;;;18.50;88.30;;;;;;5116718;28;20034;-78
2021/08/19 07:01:20;;;;;;;18.90;14.05;;;18.50;88.30;;;;;;5078053;28;20397;-80
2021/08/19 07:03:46;;;;;;;21.02;13.43;;;18.50;88.30;;;;;;5108330;28;20155;-79
2021/08/19 07:06:13;;;;;;;22.70;14.65;;;18.60;88.20;;;;;;5113222;28;20112;-79
2021/08/19 07:08:39;;;;;;;20.92;15.05;;;18.60;88.10;;;;;;5114251;28;20028;-78
2021/08/19 07:11:05;;;;;;;21.60;14.48;;;18.70;88.10;;;;;;5097483;28;20486;-79
2021/08/19 07:13:31;;;;;;;21.17;14.43;;;18.70;87.90;;;;;;5100238;28;20095;-79
2021/08/19 07:15:56;;;;;;;19.55;13.10;;;18.60;87.80;;;;;;5094820;28;20107;-80
2021/08/19 07:18:22;;;;;;;18.63;13.93;;;18.70;87.80;;;;;;5057574;28;20049;-79
2021/08/19 07:20:48;;;;;;;23.70;15.90;;;18.70;87.80;;;;;;5091382;28;20082;-77
2021/08/19 07:23:13;;;;;;;17.88;14.90;;;18.70;87.60;;;;;;5091141;28;20015;-77
2021/08/19 07:25:39;;;;;;;21.05;15.90;;;18.70;87.60;;;;;;5090547;28;20436;-79
2021/08/19 07:28:05;;;;;;;20.20;16.90;;;18.80;87.60;;;;;;5111262;28;20053;-80
2021/08/19 07:30:31;;;;;;;22.65;14.73;;;18.80;87.40;;;;;;5113434;28;20376;-80
2021/08/19 07:32:57;;;;;;;21.40;16.20;;;18.80;87.30;;;;;;5113500;28;20024;-81
2021/08/19 07:35:23;;;;;;;23.52;17.80;;;18.80;87.10;;;;;;5115998;28;20024;-80
2021/08/19 07:37:52;;;;;;;19.52;16.38;;;18.80;87.10;;;;;;5091212;28;20047;-80
2021/08/19 07:40:20;;;;;;;25.85;16.42;;;18.80;87.00;;;;;;5117167;28;20125;-80
2021/08/19 07:42:46;;;;;;;19.15;16.67;;;18.90;86.90;;;;;;5110507;28;20375;-79
2021/08/19 07:45:13;;;;;;;26.60;17.90;;;18.90;86.70;;;;;;5115092;28;20023;-80
2021/08/19 07:47:40;;;;;;;23.75;17.45;;;18.90;86.50;;;;;;5106048;28;20036;-79
2021/08/19 07:50:06;;;;;;;21.85;17.65;;;18.90;86.30;;;;;;5100133;28;20072;-78
2021/08/19 07:52:32;;;;;;;22.67;16.45;;;18.90;86.30;;;;;;5094638;28;20043;-78
2021/08/19 07:54:58;;;;;;;20.60;16.05;;;19.00;86.30;;;;;;5111855;28;20028;-81
2021/08/19 07:57:24;;;;;;;20.13;14.93;;;18.90;86.20;;;;;;5079297;28;20040;-79
2021/08/19 07:59:49;;;;;;;24.55;17.02;;;18.90;86.10;;;;;;5114316;28;20383;-80
2021/08/19 08:02:15;;;;;;;19.10;16.23;;;18.90;86.10;;;;;;5095549;28;20040;-79
2021/08/19 08:04:41;;;;;;;20.55;15.77;;;18.90;86.10;;;;;;5102453;28;20024;-79
2021/08/19 08:07:06;;;;;;;20.73;16.52;;;18.90;86.10;;;;;;5108634;28;20082;-81
2021/08/19 08:09:32;;;;;;;20.65;16.85;;;18.90;86.10;;;;;;5107978;28;20032;-80
2021/08/19 08:11:59;;;;;;;21.48;16.58;;;18.80;86.00;;;;;;5108359;28;20028;-84
2021/08/19 08:14:25;;;;;;;24.77;19.02;;;18.90;86.00;;;;;;5103331;28;20024;-82
2021/08/19 08:16:51;;;;;;;30.77;22.15;;;18.90;85.90;;;;;;5110345;28;20387;-78
2021/08/19 08:19:16;;;;;;;29.25;22.65;;;18.90;85.70;;;;;;5079835;28;20028;-79
2021/08/19 08:21:43;;;;;;;22.80;17.40;;;19.00;85.70;;;;;;5091454;28;20399;-78
2021/08/19 08:24:10;;;;;;;29.20;22.15;;;19.00;85.60;;;;;;5096719;28;20433;-78
2021/08/19 08:26:36;;;;;;;22.20;17.23;;;19.00;85.30;;;;;;5098347;28;20028;-79
2021/08/19 08:29:02;;;;;;;21.98;18.50;;;19.00;85.30;;;;;;5112059;28;20030;-81
2021/08/19 08:31:30;;;;;;;20.98;17.45;;;19.00;85.10;;;;;;5097906;28;20039;-79
2021/08/19 08:33:57;;;;;;;35.30;27.95;;;19.10;85.10;;;;;;5113947;28;20464;-80
2021/08/19 08:36:23;;;;;;;22.02;18.73;;;19.10;85.20;;;;;;5113838;28;20028;-80
2021/08/19 08:38:49;;;;;;;22.77;18.15;;;19.00;85.00;;;;;;5113944;28;20122;-81
2021/08/19 08:41:19;;;;;;;22.15;19.10;;;19.10;84.90;;;;;;5113875;28;20463;-80
2021/08/19 08:43:46;;;;;;;23.25;20.42;;;19.10;84.70;;;;;;5113977;28;20114;-80
2021/08/19 08:46:15;;;;;;;21.50;18.92;;;19.20;84.40;;;;;;5128317;28;20012;-82
2021/08/19 08:48:42;;;;;;;19.20;16.85;;;19.20;84.30;;;;;;5117380;28;20024;-79
2021/08/19 08:51:08;;;;;;;18.77;15.57;;;19.30;84.00;;;;;;5116246;28;20019;-79
2021/08/19 08:53:34;;;;;;;22.00;18.70;;;19.30;83.70;;;;;;5115002;28;20060;-79
2021/08/19 08:55:59;;;;;;;18.95;16.27;;;19.40;83.70;;;;;;5115247;28;20122;-79
2021/08/19 08:58:25;;;;;;;20.23;15.60;;;19.50;83.50;;;;;;5100520;28;20027;-79
2021/08/19 09:00:51;;;;;;;16.23;13.15;;;19.60;83.40;;;;;;5101421;28;20391;-80
2021/08/19 09:03:18;;;;;;;15.48;13.82;;;19.70;82.90;;;;;;5092983;28;20452;-79
2021/08/19 09:05:46;;;;;;;15.55;12.38;;;19.70;82.50;;;;;;5105935;28;20104;-81
2021/08/19 09:08:25;;;;;;;17.00;14.30;;;19.70;82.10;;;;;;5113937;28;20031;-80
2021/08/19 09:10:53;;;;;;;16.77;13.43;;;19.80;82.10;;;;;;5114374;28;20015;-79
2021/08/19 09:13:24;;;;;;;15.82;11.88;;;20.10;81.70;;;;;;5111413;28;20116;-79
2021/08/19 09:15:51;;;;;;;14.93;11.65;;;20.30;80.80;;;;;;5108308;28;20020;-78
2021/08/19 09:18:33;;;;;;;16.45;13.13;;;20.40;80.10;;;;;;5112842;28;20356;-79
2021/08/19 09:21:00;;;;;;;14.73;9.57;;;20.50;79.70;;;;;;5112946;28;20023;-79
2021/08/19 09:23:26;;;;;;;11.90;10.63;;;20.50;79.60;;;;;;5095604;28;20273;-80
2021/08/19 09:25:52;;;;;;;15.50;10.35;;;20.70;79.40;;;;;;5114381;28;20020;-80
2021/08/19 09:28:19;;;;;;;13.07;11.73;;;20.80;78.50;;;;;;5111560;28;20378;-79
2021/08/19 09:30:50;;;;;;;14.68;11.13;;;21.00;78.10;;;;;;5114234;28;20023;-79
2021/08/19 09:33:19;;;;;;;11.23;9.95;;;21.20;77.30;;;;;;5111907;28;20387;-80
2021/08/19 09:35:46;;;;;;;11.13;9.98;;;21.40;77.10;;;;;;5112619;28;20031;-80
2021/08/19 09:38:21;;;;;;;12.27;9.63;;;21.50;76.90;;;;;;5111997;28;20088;-80
2021/08/19 09:41:17;;;;;;;10.90;7.88;;;21.40;76.90;;;;;;5104724;28;20031;-79
2021/08/19 09:43:47;;;;;;;10.57;7.30;;;21.30;76.60;;;;;;5109797;28;20045;-81
2021/08/19 09:46:16;;;;;;;10.55;7.50;;;21.10;76.60;;;;;;5110956;28;20490;-83
2021/08/19 09:48:43;;;;;;;7.53;6.65;;;21.10;76.70;;;;;;5111575;28;20076;-79
2021/08/19 09:51:24;;;;;;;10.90;6.90;;;21.20;76.40;;;;;;5111929;28;20110;-83
2021/08/19 09:53:58;;;;;;;8.65;5.38;;;21.40;75.90;;;;;;5110951;28;20062;-79
2021/08/19 09:56:38;;;;;;;8.82;7.18;;;21.70;75.00;;;;;;5091474;28;20534;-79
2021/08/19 09:59:23;;;;;;;12.20;8.20;;;21.90;74.60;;;;;;5099701;28;20043;-81
2021/08/19 10:01:51;;;;;;;9.57;6.53;;;22.20;74.10;;;;;;5074036;28;20036;-80
2021/08/19 10:04:18;;;;;;;10.32;6.53;;;22.40;73.40;;;;;;5097997;28;20511;-79
2021/08/19 10:06:44;;;;;;;6.88;5.72;;;22.60;72.90;;;;;;5094188;28;20560;-79
2021/08/19 10:09:11;;;;;;;6.03;4.65;;;22.60;72.50;;;;;;5103507;28;20055;-81
2021/08/19 10:11:39;;;;;;;6.30;4.15;;;22.50;72.40;;;;;;5076076;28;20028;-78
2021/08/19 10:14:04;;;;;;;7.53;4.22;;;22.60;72.40;;;;;;5106404;28;20035;-79
2021/08/19 10:16:31;;;;;;;8.23;4.03;;;22.60;72.20;;;;;;5111540;28;20019;-79
2021/08/19 10:19:05;;;;;;;6.30;4.07;;;22.60;71.70;;;;;;5112150;28;20047;-78
2021/08/19 10:21:32;;;;;;;4.47;2.92;;;22.60;71.40;;;;;;5112040;28;20784;-79
2021/08/19 10:24:00;;;;;;;4.53;2.60;;;22.50;71.10;;;;;;5112020;28;20051;-80
2021/08/19 10:26:26;;;;;;;3.65;2.53;;;22.40;71.00;;;;;;5091387;28;20028;-83
2021/08/19 10:28:54;;;;;;;4.32;2.72;;;22.40;70.70;;;;;;5096392;28;20028;-80
2021/08/19 10:31:39;;;;;;;4.07;2.35;;;22.50;70.50;;;;;;5092791;28;20042;-79
2021/08/19 10:34:06;;;;;;;4.18;2.63;;;22.60;70.70;;;;;;5092960;28;20101;-79
2021/08/19 10:36:49;;;;;;;4.10;2.53;;;22.70;70.00;;;;;;5092483;28;20024;-80
2021/08/19 10:39:20;;;;;;;4.82;2.70;;;22.90;69.40;;;;;;5111690;28;20039;-78
2021/08/19 10:41:47;;;;;;;5.00;2.43;;;23.00;68.90;;;;;;5113408;28;20061;-79
2021/08/19 10:44:13;;;;;;;2.97;1.70;;;23.10;68.80;;;;;;5108898;28;20483;-80
2021/08/19 10:46:42;;;;;;;4.10;1.80;;;23.30;68.70;;;;;;5102419;28;20029;-81
2021/08/19 10:49:28;;;;;;;3.97;2.00;;;23.30;67.90;;;;;;5105374;28;20016;-80
2021/08/19 10:51:55;;;;;;;4.43;2.75;;;23.20;67.60;;;;;;5097173;28;20479;-78
2021/08/19 10:54:34;;;;;;;5.53;4.55;;;23.10;67.50;;;;;;5111504;28;20475;-81
2021/08/19 10:57:32;;;;;;;7.95;4.45;;;23.10;67.60;;;;;;5109590;28;20032;-78
2021/08/19 11:00:11;;;;;;;5.25;3.40;;;23.10;67.80;;;;;;5108859;28;20055;-76
2021/08/19 11:02:47;;;;;;;3.40;2.92;;;23.00;67.90;;;;;;5112908;28;20046;-77
2021/08/19 11:05:20;;;;;;;4.45;2.55;;;22.90;68.20;;;;;;5111039;28;20434;-76
2021/08/19 11:07:51;;;;;;;5.63;3.65;;;22.70;68.20;;;;;;5110668;28;20020;-76
2021/08/19 11:10:26;;;;;;;7.85;3.03;;;22.50;68.00;;;;;;5105870;28;20032;-76
2021/08/19 11:12:52;;;;;;;6.63;3.30;;;22.30;68.30;;;;;;5098367;28;20020;-77
2021/08/19 11:15:19;;;;;;;2.90;1.67;;;22.00;68.40;;;;;;5115337;28;20035;-77
2021/08/19 11:17:55;;;;;;;4.95;1.55;;;21.80;69.00;;;;;;5112168;28;20081;-76
2021/08/19 11:20:21;;;;;;;8.63;2.50;;;21.60;69.50;;;;;;5115902;28;20028;-81
2021/08/19 11:23:08;;;;;;;2.55;1.77;;;21.40;70.10;;;;;;5115749;28;20051;-78
2021/08/19 11:25:41;;;;;;;8.48;1.77;;;21.30;70.40;;;;;;5112793;28;21299;-78
2021/08/19 11:28:12;;;;;;;3.35;1.50;;;21.30;70.90;;;;;;5111831;28;20040;-76
2021/08/19 11:30:44;;;;;;;4.18;1.60;;;21.10;71.00;;;;;;5114617;28;20106;-76
2021/08/19 11:33:15;;;;;;;3.92;1.50;;;21.10;71.50;;;;;;5113428;28;20020;-76
2021/08/19 11:35:43;;;;;;;5.13;1.58;;;21.20;71.50;;;;;;5112768;28;20126;-77
2021/08/19 11:38:15;;;;;;;3.70;1.30;;;21.20;71.60;;;;;;5113175;28;20336;-76
2021/08/19 11:40:44;;;;;;;3.00;1.35;;;21.20;71.70;;;;;;5113827;28;20028;-75
2021/08/19 11:43:28;;;;;;;9.13;1.63;;;21.30;71.80;;;;;;5113819;28;20020;-75
2021/08/19 11:46:07;;;;;;;5.07;2.00;;;21.30;71.60;;;;;;5112482;28;20053;-78
2021/08/19 11:48:34;;;;;;;3.80;1.10;;;21.30;71.60;;;;;;5100428;28;20035;-77
2021/08/19 11:51:03;;;;;;;3.92;1.27;;;21.30;71.30;;;;;;5083890;28;20033;-76
2021/08/19 11:53:28;;;;;;;6.22;1.02;;;21.40;71.40;;;;;;5100148;28;20050;-79
2021/08/19 11:55:55;;;;;;;2.10;0.90;;;21.40;71.10;;;;;;5099823;28;20028;-77
2021/08/19 11:58:24;;;;;;;1.65;0.85;;;21.40;70.90;;;;;;5112647;28;20365;-78
2021/08/19 12:01:05;;;;;;;2.60;0.90;;;21.40;70.70;;;;;;5116103;28;20019;-77
2021/08/19 12:03:41;;;;;;;3.45;1.00;;;21.40;70.60;;;;;;5114589;28;20023;-78
2021/08/19 12:06:09;;;;;;;3.38;1.15;;;21.50;70.50;;;;;;5114928;28;20045;-76
2021/08/19 12:08:46;;;;;;;3.03;0.90;;;21.50;70.40;;;;;;5116740;28;20036;-77
2021/08/19 12:11:15;;;;;;;2.88;1.13;;;21.70;70.60;;;;;;5115891;28;20045;-76
2021/08/19 12:13:41;;;;;;;1.83;0.75;;;22.00;70.10;;;;;;5115946;28;20036;-75
2021/08/19 12:16:09;;;;;;;1.95;0.90;;;22.30;69.60;;;;;;5117151;28;20106;-76
2021/08/19 12:18:34;;;;;;;2.83;0.77;;;22.60;68.50;;;;;;5115039;28;20032;-78
2021/08/19 12:21:26;;;;;;;2.10;0.60;;;22.90;68.20;;;;;;5115060;28;20556;-76
2021/08/19 12:24:12;;;;;;;1.17;0.50;;;23.30;67.30;;;;;;5093488;28;20040;-76
2021/08/19 12:26:39;;;;;;;1.55;0.82;;;23.60;66.50;;;;;;5094716;28;20027;-78
2021/08/19 12:29:05;;;;;;;1.40;0.63;;;23.80;65.10;;;;;;5113646;28;20455;-77
2021/08/19 12:31:50;;;;;;;3.13;0.80;;;24.00;64.70;;;;;;5114898;28;20030;-77
2021/08/19 12:34:17;;;;;;;2.40;0.60;;;24.10;63.10;;;;;;5094421;28;20368;-76
2021/08/19 12:36:43;;;;;;;2.55;0.60;;;24.20;63.10;;;;;;5096874;28;20039;-76
2021/08/19 12:39:29;;;;;;;2.22;0.70;;;24.20;63.00;;;;;;5114900;28;20023;-77